WetterOnline ( http://www.wetteronline.ch )

Wetter aktuell Frankfurt am Main

Aktuelles Wetter: Kleiner Feldberg (802m)

6-stündlich | Neueste Meldungen
Ortszeit Temperatur Wetter
Sa, 23.03. 19:00 4.2° C leicht bewölkt
Sa, 23.03. 13:00 9.6° C leicht bewölkt
Sa, 23.03. 7:00 5.3° C wolkig
Sa, 23.03. 1:00 8.6° C wolkenlos
Fr, 22.03. 19:00 10.3° C wolkenlos
Fr, 22.03. 13:00 11.0° C leicht bewölkt
Fr, 22.03. 7:00 7.4° C leicht bewölkt
Fr, 22.03. 1:00 7.8° C wolkenlos
Ortszeit Temperatur Wetter
Sa, 23.03. 23:00 4.3° C wolkenlos
Sa, 23.03. 22:40 4.0° C wolkenlos
Sa, 23.03. 22:30 4.2° C wolkenlos
Sa, 23.03. 22:20 4.2° C wolkenlos
Sa, 23.03. 22:10 4.1° C fast wolkenlos
Sa, 23.03. 22:00 4.2° C leicht bewölkt
Sa, 23.03. 21:50 4.2° C leicht bewölkt
Sa, 23.03. 21:30 4.2° C wolkig
Sa, 23.03. 21:00 4.0° C wolkig
Sa, 23.03. 20:30 4.1° C wolkig
Sa, 23.03. 20:00 4.4° C wolkig
Ortszeit Relative Feuchte Sichtweite
Sa, 23.03. 19:00 91% 2.7 km
Sa, 23.03. 13:00 67% 5.0 km
Sa, 23.03. 7:00 72% 11 km
Sa, 23.03. 1:00 55% 30 km
Fr, 22.03. 19:00 49% 70 km
Fr, 22.03. 13:00 38% 35 km
Fr, 22.03. 7:00 49% 50 km
Fr, 22.03. 1:00 56% 45 km
Ortszeit Relative Feuchte Sichtweite
Sa, 23.03. 23:00 87% 7 km
Sa, 23.03. 22:40 89% -
Sa, 23.03. 22:30 88% 7 km
Sa, 23.03. 22:20 88% -
Sa, 23.03. 22:10 89% -
Sa, 23.03. 22:00 88% 7 km
Sa, 23.03. 21:50 88% -
Sa, 23.03. 21:30 87% 7 km
Sa, 23.03. 21:00 89% 6 km
Sa, 23.03. 20:30 89% 6 km
Sa, 23.03. 20:00 87% 3.7 km
Ortszeit Niederschlagsmenge Niederschlagsart
Sa, 23.03. 19:00 0.0 l/m2 in 12 Std. -
Sa, 23.03. 13:00 0.0 l/m2 in 6 Std. -
Sa, 23.03. 7:00 0.0 l/m2 in 12 Std. -
Sa, 23.03. 1:00 0.0 l/m2 in 6 Std. -
Fr, 22.03. 19:00 0.0 l/m2 in 12 Std. -
Fr, 22.03. 13:00 0.0 l/m2 in 6 Std. -
Fr, 22.03. 7:00 0.0 l/m2 in 12 Std. -
Fr, 22.03. 1:00 0.0 l/m2 in 6 Std. -
Ortszeit Niederschlagsmenge Niederschlagsart
Sa, 23.03. 23:00 0.0 l/m2 in 1 Std. -
Sa, 23.03. 22:40 keine Meldung -
Sa, 23.03. 22:30 0.0 l/m2 in 1 Std. -
Sa, 23.03. 22:20 keine Meldung -
Sa, 23.03. 22:10 keine Meldung -
Sa, 23.03. 22:00 0.0 l/m2 in 1 Std. -
Sa, 23.03. 21:50 keine Meldung -
Sa, 23.03. 21:30 0.0 l/m2 in 1 Std. -
Sa, 23.03. 21:00 0.0 l/m2 in 1 Std. -
Sa, 23.03. 20:30 0.0 l/m2 in 1 Std. -
Sa, 23.03. 20:00 0.0 l/m2 in 1 Std. -
Ortszeit Stärke Spitze Richtung
km/h Bft. km/h Grad Sektor
Sa, 23.03. 19:00 18 3 29 360° N
Sa, 23.03. 13:00 7 2 29 350° N
Sa, 23.03. 7:00 9 2 15 330° NW
Sa, 23.03. 1:00 7 2 25 220° SW
Fr, 22.03. 19:00 18 3 32 130° SO
Fr, 22.03. 13:00 11 2 36 100° O
Fr, 22.03. 7:00 22 4 36 120° SO
Fr, 22.03. 1:00 18 3 32 100° O
Ortszeit Stärke Spitze Richtung
km/h Bft. km/h Grad Sektor
Sa, 23.03. 23:00 28 4 50 40° NO
Sa, 23.03. 22:40 31 5 - 40° NO
Sa, 23.03. 22:30 30 5 50 40° NO
Sa, 23.03. 22:20 30 5 - 40° NO
Sa, 23.03. 22:10 32 5 - 40° NO
Sa, 23.03. 22:00 36 5 54 40° NO
Sa, 23.03. 21:50 36 5 - 40° NO
Sa, 23.03. 21:30 28 4 52 40° NO
Sa, 23.03. 21:00 28 4 48 20° N
Sa, 23.03. 20:30 28 4 48 20° N
Sa, 23.03. 20:00 22 4 37 10° N
Ortszeit Untergrenze Bedeckung Gattung
total tief tief mittel hoch
Sa, 23.03. 19:00 10500 m 5/8 0/8 - - -
Sa, 23.03. 13:00 9000 m 8/8 0/8 - - -
Sa, 23.03. 7:00 10500 m 8/8 0/8 - - -
Sa, 23.03. 1:00 - 0/8 0/8 - - -
Fr, 22.03. 19:00 - 0/8 0/8 - - -
Fr, 22.03. 13:00 7800 m 7/8 0/8 - - -
Fr, 22.03. 7:00 8700 m 3/8 0/8 - - -
Fr, 22.03. 1:00 - 0/8 0/8 - - -
Ortszeit Bedeckungsgrad in Achtel und Wolkenuntergrenze
Sa, 23.03. 23:00 keine Wolken
Sa, 23.03. 22:40 keine Wolken
Sa, 23.03. 22:30 keine Wolken
Sa, 23.03. 22:20 keine Wolken
Sa, 23.03. 22:10 2(9000m)
Sa, 23.03. 22:00 6(9000m)
Sa, 23.03. 21:50 6(9000m)
Sa, 23.03. 21:30 8(9000m) 8(10500m)
Sa, 23.03. 21:00 6(10500m) 8(10500m)
Sa, 23.03. 20:30 1(9000m) 8(10500m)
Sa, 23.03. 20:00 7(10500m)
Ortszeit Stationsdruck (hPa) Tendenz (hPa in 3 Std.)
Sa, 23.03. 19:00 931 + 0,1
Sa, 23.03. 13:00 931 + 0,4
Sa, 23.03. 7:00 930 - 0,1
Sa, 23.03. 1:00 931 - 0,6
Fr, 22.03. 19:00 931 - 0,7
Fr, 22.03. 13:00 934 - 0,3
Fr, 22.03. 7:00 934 - 0,4
Fr, 22.03. 1:00 935 - 0,6
Ortszeit Stationsdruck (hPa) Tendenz (hPa in 3 Std.)
Sa, 23.03. 23:00 931 - 0,5
Sa, 23.03. 22:40 931 keine Meldung
Sa, 23.03. 22:30 931 - 0,3
Sa, 23.03. 22:20 931 keine Meldung
Sa, 23.03. 22:10 931 keine Meldung
Sa, 23.03. 22:00 931 0,0
Sa, 23.03. 21:50 931 keine Meldung
Sa, 23.03. 21:30 931 + 0,2
Sa, 23.03. 21:00 931 + 0,3
Sa, 23.03. 20:30 931 + 0,3
Sa, 23.03. 20:00 931 + 0,5
Ortszeit Schneehöhe (cm)
Sa, 23.03. 19:00 0
Sa, 23.03. 13:00 0
Sa, 23.03. 7:00 0
Sa, 23.03. 1:00 0
Fr, 22.03. 19:00 0
Fr, 22.03. 13:00 0
Fr, 22.03. 7:00 0
Fr, 22.03. 1:00 0
Ortszeit Schneehöhe (cm)
Sa, 23.03. 23:00 0
Sa, 23.03. 22:40 0
Sa, 23.03. 22:30 0
Sa, 23.03. 22:20 0
Sa, 23.03. 22:10 0
Sa, 23.03. 22:00 0
Sa, 23.03. 21:50 0
Sa, 23.03. 21:30 0
Sa, 23.03. 21:00 0
Sa, 23.03. 20:30 0
Sa, 23.03. 20:00 0
Link zu dieser Seite / Seite empfehlen

Das Wetter in ...